Red Springs, North Carolina
Current Conditions -  °F | °C
As of 7:52 AM on Thursday 27 Nov 2014 (Local Time) from KMEB Reporting Station
Clear Clear  
Wind Chill: 34°   Ceiling: Unl
Heat Index: 40°   Visibility: 10mi
Dew Point: 37°   Wind: 9mph
Humidity: 89%   Direction: 240°WSW
Pressure: 30.02"   Gusts: NA
Location:  34.82°N, 79.18°W
Report Text: KMEB 271252Z AUTO 24008KT 10SM CLR 04/03 A3002 RMK AO2 SLP167 T00440028
Loading
Personal Weather Stations






























Interactive Weather Map New forecast layout! Learn more

10-Day Weather Forecast

Advertisements
Track Severe Weather on mobile